sensor_id;sensor_type;location;lat;lon;timestamp;P1;durP1;ratioP1;P2;durP2;ratioP2
19808;SDS011;48538;32.784;-96.802;2023-04-28T00:02:25;1.20;;;1.10;;
19808;SDS011;48538;32.784;-96.802;2023-04-28T00:04:51;1.40;;;1.30;;
19808;SDS011;48538;32.784;-96.802;2023-04-28T00:07:18;1.42;;;1.13;;
19808;SDS011;48538;32.784;-96.802;2023-04-28T00:09:45;1.00;;;1.00;;
19808;SDS011;48538;32.784;-96.802;2023-04-28T00:12:11;2.42;;;1.27;;
19808;SDS011;48538;32.784;-96.802;2023-04-28T00:14:37;1.35;;;1.25;;
19808;SDS011;48538;32.784;-96.802;2023-04-28T00:17:04;2.25;;;1.10;;
19808;SDS011;48538;32.784;-96.802;2023-04-28T00:19:31;1.10;;;1.10;;
19808;SDS011;48538;32.784;-96.802;2023-04-28T00:21:57;1.20;;;1.10;;
19808;SDS011;48538;32.784;-96.802;2023-04-28T00:24:23;1.52;;;1.15;;
19808;SDS011;48538;32.784;-96.802;2023-04-28T00:26:49;1.17;;;1.08;;
19808;SDS011;48538;32.784;-96.802;2023-04-28T00:29:16;1.10;;;1.10;;
19808;SDS011;48538;32.784;-96.802;2023-04-28T00:31:43;1.15;;;1.15;;
19808;SDS011;48538;32.784;-96.802;2023-04-28T00:34:09;1.73;;;1.20;;
19808;SDS011;48538;32.784;-96.802;2023-04-28T00:36:38;1.48;;;1.15;;
19808;SDS011;48538;32.784;-96.802;2023-04-28T00:39:05;1.52;;;1.42;;
19808;SDS011;48538;32.784;-96.802;2023-04-28T00:41:33;1.63;;;1.30;;
19808;SDS011;48538;32.784;-96.802;2023-04-28T00:43:59;2.67;;;1.38;;
19808;SDS011;48538;32.784;-96.802;2023-04-28T00:46:27;2.45;;;1.35;;
19808;SDS011;48538;32.784;-96.802;2023-04-28T00:48:56;1.83;;;1.30;;
19808;SDS011;48538;32.784;-96.802;2023-04-28T00:51:23;2.63;;;2.40;;
19808;SDS011;48538;32.784;-96.802;2023-04-28T00:53:49;21.05;;;8.32;;
19808;SDS011;48538;32.784;-96.802;2023-04-28T00:56:16;22.13;;;9.32;;
19808;SDS011;48538;32.784;-96.802;2023-04-28T00:58:42;15.25;;;6.43;;
19808;SDS011;48538;32.784;-96.802;2023-04-28T01:01:08;2.13;;;1.80;;
19808;SDS011;48538;32.784;-96.802;2023-04-28T01:03:36;3.72;;;1.73;;
19808;SDS011;48538;32.784;-96.802;2023-04-28T01:06:04;5.93;;;2.30;;
19808;SDS011;48538;32.784;-96.802;2023-04-28T01:08:32;3.45;;;1.92;;
19808;SDS011;48538;32.784;-96.802;2023-04-28T01:11:00;2.72;;;1.63;;
19808;SDS011;48538;32.784;-96.802;2023-04-28T01:13:27;4.50;;;2.53;;
19808;SDS011;48538;32.784;-96.802;2023-04-28T01:15:56;3.15;;;2.85;;
19808;SDS011;48538;32.784;-96.802;2023-04-28T01:18:23;2.33;;;1.88;;
19808;SDS011;48538;32.784;-96.802;2023-04-28T01:20:50;2.10;;;1.50;;
19808;SDS011;48538;32.784;-96.802;2023-04-28T01:23:16;2.00;;;1.77;;
19808;SDS011;48538;32.784;-96.802;2023-04-28T01:25:43;3.60;;;2.92;;
19808;SDS011;48538;32.784;-96.802;2023-04-28T01:28:09;2.30;;;2.10;;
19808;SDS011;48538;32.784;-96.802;2023-04-28T01:30:36;3.50;;;2.35;;
19808;SDS011;48538;32.784;-96.802;2023-04-28T01:33:02;4.28;;;2.90;;
19808;SDS011;48538;32.784;-96.802;2023-04-28T01:35:28;1.88;;;1.75;;
19808;SDS011;48538;32.784;-96.802;2023-04-28T01:37:55;2.78;;;2.00;;
19808;SDS011;48538;32.784;-96.802;2023-04-28T01:40:21;2.38;;;1.80;;
19808;SDS011;48538;32.784;-96.802;2023-04-28T01:42:47;2.00;;;1.80;;
19808;SDS011;48538;32.784;-96.802;2023-04-28T01:45:14;4.82;;;2.28;;
19808;SDS011;48538;32.784;-96.802;2023-04-28T01:47:40;4.35;;;2.45;;
19808;SDS011;48538;32.784;-96.802;2023-04-28T01:50:06;3.90;;;2.10;;
19808;SDS011;48538;32.784;-96.802;2023-04-28T01:52:33;4.63;;;3.38;;
19808;SDS011;48538;32.784;-96.802;2023-04-28T01:54:59;2.47;;;1.63;;
19808;SDS011;48538;32.784;-96.802;2023-04-28T01:57:26;2.88;;;2.17;;
19808;SDS011;48538;32.784;-96.802;2023-04-28T01:59:53;7.65;;;4.35;;
19808;SDS011;48538;32.784;-96.802;2023-04-28T02:02:19;4.82;;;3.45;;
19808;SDS011;48538;32.784;-96.802;2023-04-28T02:04:46;5.47;;;3.25;;
19808;SDS011;48538;32.784;-96.802;2023-04-28T02:07:12;3.17;;;2.65;;
19808;SDS011;48538;32.784;-96.802;2023-04-28T02:09:38;5.07;;;3.50;;
19808;SDS011;48538;32.784;-96.802;2023-04-28T02:12:05;3.97;;;2.63;;
19808;SDS011;48538;32.784;-96.802;2023-04-28T02:14:31;4.00;;;2.10;;
19808;SDS011;48538;32.784;-96.802;2023-04-28T02:16:57;4.30;;;2.53;;
19808;SDS011;48538;32.784;-96.802;2023-04-28T02:19:24;3.35;;;2.78;;
19808;SDS011;48538;32.784;-96.802;2023-04-28T02:21:50;4.47;;;2.65;;
19808;SDS011;48538;32.784;-96.802;2023-04-28T02:24:16;2.63;;;1.98;;
19808;SDS011;48538;32.784;-96.802;2023-04-28T02:26:43;6.70;;;2.22;;
19808;SDS011;48538;32.784;-96.802;2023-04-28T02:29:09;3.88;;;2.63;;
19808;SDS011;48538;32.784;-96.802;2023-04-28T02:31:35;2.33;;;2.13;;
19808;SDS011;48538;32.784;-96.802;2023-04-28T02:34:02;4.78;;;3.33;;
19808;SDS011;48538;32.784;-96.802;2023-04-28T02:36:28;3.97;;;3.05;;
19808;SDS011;48538;32.784;-96.802;2023-04-28T02:38:56;4.07;;;2.88;;
19808;SDS011;48538;32.784;-96.802;2023-04-28T02:41:22;2.45;;;2.10;;
19808;SDS011;48538;32.784;-96.802;2023-04-28T02:43:48;3.17;;;2.85;;
19808;SDS011;48538;32.784;-96.802;2023-04-28T02:46:14;2.53;;;2.25;;
19808;SDS011;48538;32.784;-96.802;2023-04-28T02:48:41;2.25;;;2.05;;
19808;SDS011;48538;32.784;-96.802;2023-04-28T02:51:07;4.25;;;2.83;;
19808;SDS011;48538;32.784;-96.802;2023-04-28T02:53:33;2.05;;;1.85;;
19808;SDS011;48538;32.784;-96.802;2023-04-28T02:56:00;3.70;;;2.15;;
19808;SDS011;48538;32.784;-96.802;2023-04-28T02:58:28;2.45;;;2.05;;
19808;SDS011;48538;32.784;-96.802;2023-04-28T03:00:55;1.60;;;1.50;;
19808;SDS011;48538;32.784;-96.802;2023-04-28T03:03:21;2.05;;;1.88;;
19808;SDS011;48538;32.784;-96.802;2023-04-28T03:05:47;2.08;;;1.83;;
19808;SDS011;48538;32.784;-96.802;2023-04-28T03:08:13;3.22;;;2.00;;
19808;SDS011;48538;32.784;-96.802;2023-04-28T03:10:40;1.52;;;1.30;;
19808;SDS011;48538;32.784;-96.802;2023-04-28T03:13:06;2.88;;;2.40;;
19808;SDS011;48538;32.784;-96.802;2023-04-28T03:15:32;3.55;;;2.60;;
19808;SDS011;48538;32.784;-96.802;2023-04-28T03:17:58;3.13;;;1.80;;
19808;SDS011;48538;32.784;-96.802;2023-04-28T03:20:25;2.38;;;2.15;;
19808;SDS011;48538;32.784;-96.802;2023-04-28T03:22:51;4.78;;;2.53;;
19808;SDS011;48538;32.784;-96.802;2023-04-28T03:25:18;2.65;;;2.22;;
19808;SDS011;48538;32.784;-96.802;2023-04-28T03:27:44;3.28;;;2.70;;
19808;SDS011;48538;32.784;-96.802;2023-04-28T03:30:11;3.20;;;2.30;;
19808;SDS011;48538;32.784;-96.802;2023-04-28T03:32:38;2.47;;;2.22;;
19808;SDS011;48538;32.784;-96.802;2023-04-28T03:35:04;2.65;;;1.95;;
19808;SDS011;48538;32.784;-96.802;2023-04-28T03:37:31;2.35;;;2.15;;
19808;SDS011;48538;32.784;-96.802;2023-04-28T03:39:57;2.55;;;2.15;;
19808;SDS011;48538;32.784;-96.802;2023-04-28T03:42:24;3.25;;;2.20;;
19808;SDS011;48538;32.784;-96.802;2023-04-28T03:44:50;3.40;;;2.20;;
19808;SDS011;48538;32.784;-96.802;2023-04-28T03:47:16;2.00;;;1.80;;
19808;SDS011;48538;32.784;-96.802;2023-04-28T03:49:43;2.22;;;2.03;;
19808;SDS011;48538;32.784;-96.802;2023-04-28T03:52:09;2.50;;;2.28;;
19808;SDS011;48538;32.784;-96.802;2023-04-28T03:54:35;2.13;;;1.90;;
19808;SDS011;48538;32.784;-96.802;2023-04-28T03:57:02;2.30;;;2.10;;
19808;SDS011;48538;32.784;-96.802;2023-04-28T03:59:28;2.13;;;1.92;;
19808;SDS011;48538;32.784;-96.802;2023-04-28T04:01:55;2.22;;;2.08;;
19808;SDS011;48538;32.784;-96.802;2023-04-28T04:04:21;2.75;;;2.28;;
19808;SDS011;48538;32.784;-96.802;2023-04-28T04:06:47;2.33;;;2.00;;
19808;SDS011;48538;32.784;-96.802;2023-04-28T04:09:13;2.50;;;1.80;;
19808;SDS011;48538;32.784;-96.802;2023-04-28T04:11:40;1.70;;;1.60;;
19808;SDS011;48538;32.784;-96.802;2023-04-28T04:14:06;1.70;;;1.60;;
19808;SDS011;48538;32.784;-96.802;2023-04-28T04:16:33;2.70;;;1.80;;
19808;SDS011;48538;32.784;-96.802;2023-04-28T04:19:01;2.72;;;2.08;;
19808;SDS011;48538;32.784;-96.802;2023-04-28T04:21:27;1.70;;;1.60;;
19808;SDS011;48538;32.784;-96.802;2023-04-28T04:23:53;2.38;;;1.83;;
19808;SDS011;48538;32.784;-96.802;2023-04-28T04:26:20;2.58;;;1.50;;
19808;SDS011;48538;32.784;-96.802;2023-04-28T04:28:46;6.82;;;1.80;;
19808;SDS011;48538;32.784;-96.802;2023-04-28T04:31:13;2.17;;;1.70;;
19808;SDS011;48538;32.784;-96.802;2023-04-28T04:33:39;1.50;;;1.40;;
19808;SDS011;48538;32.784;-96.802;2023-04-28T04:36:06;2.58;;;1.73;;
19808;SDS011;48538;32.784;-96.802;2023-04-28T04:38:32;2.03;;;1.58;;
19808;SDS011;48538;32.784;-96.802;2023-04-28T04:40:59;1.33;;;1.27;;
19808;SDS011;48538;32.784;-96.802;2023-04-28T04:43:25;2.30;;;1.58;;
19808;SDS011;48538;32.784;-96.802;2023-04-28T04:45:51;2.50;;;1.60;;
19808;SDS011;48538;32.784;-96.802;2023-04-28T04:48:18;1.67;;;1.58;;
19808;SDS011;48538;32.784;-96.802;2023-04-28T04:50:45;1.50;;;1.40;;
19808;SDS011;48538;32.784;-96.802;2023-04-28T04:53:11;2.78;;;1.77;;
19808;SDS011;48538;32.784;-96.802;2023-04-28T04:55:38;2.20;;;1.38;;
19808;SDS011;48538;32.784;-96.802;2023-04-28T04:58:04;2.97;;;1.50;;
19808;SDS011;48538;32.784;-96.802;2023-04-28T05:00:30;1.83;;;1.65;;
19808;SDS011;48538;32.784;-96.802;2023-04-28T05:02:57;3.17;;;1.85;;
19808;SDS011;48538;32.784;-96.802;2023-04-28T05:05:24;1.52;;;1.42;;
19808;SDS011;48538;32.784;-96.802;2023-04-28T05:07:51;2.50;;;1.70;;
19808;SDS011;48538;32.784;-96.802;2023-04-28T05:10:17;4.53;;;1.85;;
19808;SDS011;48538;32.784;-96.802;2023-04-28T05:12:43;2.28;;;1.77;;
19808;SDS011;48538;32.784;-96.802;2023-04-28T05:15:10;1.50;;;1.40;;
19808;SDS011;48538;32.784;-96.802;2023-04-28T05:17:36;1.85;;;1.75;;
19808;SDS011;48538;32.784;-96.802;2023-04-28T05:20:03;1.83;;;1.70;;
19808;SDS011;48538;32.784;-96.802;2023-04-28T05:22:29;1.75;;;1.65;;
19808;SDS011;48538;32.784;-96.802;2023-04-28T05:24:56;4.28;;;2.05;;
19808;SDS011;48538;32.784;-96.802;2023-04-28T05:27:22;1.95;;;1.85;;
19808;SDS011;48538;32.784;-96.802;2023-04-28T05:29:48;2.13;;;1.92;;
19808;SDS011;48538;32.784;-96.802;2023-04-28T05:32:15;2.58;;;1.63;;
19808;SDS011;48538;32.784;-96.802;2023-04-28T05:34:41;2.00;;;1.77;;
19808;SDS011;48538;32.784;-96.802;2023-04-28T05:37:07;2.20;;;2.00;;
19808;SDS011;48538;32.784;-96.802;2023-04-28T05:39:33;2.40;;;2.10;;
19808;SDS011;48538;32.784;-96.802;2023-04-28T05:42:00;2.85;;;2.08;;
19808;SDS011;48538;32.784;-96.802;2023-04-28T05:44:28;2.20;;;2.00;;
19808;SDS011;48538;32.784;-96.802;2023-04-28T05:46:54;4.90;;;2.40;;
19808;SDS011;48538;32.784;-96.802;2023-04-28T05:49:21;1.80;;;1.70;;
19808;SDS011;48538;32.784;-96.802;2023-04-28T05:51:48;4.13;;;2.17;;
19808;SDS011;48538;32.784;-96.802;2023-04-28T05:54:14;3.75;;;2.00;;
19808;SDS011;48538;32.784;-96.802;2023-04-28T05:56:40;2.30;;;2.13;;
19808;SDS011;48538;32.784;-96.802;2023-04-28T05:59:07;2.35;;;2.15;;
19808;SDS011;48538;32.784;-96.802;2023-04-28T06:01:34;1.90;;;1.77;;
19808;SDS011;48538;32.784;-96.802;2023-04-28T06:04:00;3.75;;;2.20;;
19808;SDS011;48538;32.784;-96.802;2023-04-28T06:06:26;2.97;;;1.90;;
19808;SDS011;48538;32.784;-96.802;2023-04-28T06:08:53;2.08;;;1.88;;
19808;SDS011;48538;32.784;-96.802;2023-04-28T06:11:19;2.33;;;2.00;;
19808;SDS011;48538;32.784;-96.802;2023-04-28T06:13:47;1.90;;;1.80;;
19808;SDS011;48538;32.784;-96.802;2023-04-28T06:16:16;3.03;;;1.90;;
19808;SDS011;48538;32.784;-96.802;2023-04-28T06:18:43;1.98;;;1.80;;
19808;SDS011;48538;32.784;-96.802;2023-04-28T06:21:09;2.30;;;2.10;;
19808;SDS011;48538;32.784;-96.802;2023-04-28T06:23:35;4.00;;;2.60;;
19808;SDS011;48538;32.784;-96.802;2023-04-28T06:26:04;7.40;;;3.33;;
19808;SDS011;48538;32.784;-96.802;2023-04-28T06:28:31;5.13;;;3.13;;
19808;SDS011;48538;32.784;-96.802;2023-04-28T06:30:57;4.77;;;2.90;;
19808;SDS011;48538;32.784;-96.802;2023-04-28T06:33:24;2.93;;;2.70;;
19808;SDS011;48538;32.784;-96.802;2023-04-28T06:35:50;3.67;;;3.00;;
19808;SDS011;48538;32.784;-96.802;2023-04-28T06:38:17;3.42;;;2.97;;
19808;SDS011;48538;32.784;-96.802;2023-04-28T06:40:44;3.10;;;2.80;;
19808;SDS011;48538;32.784;-96.802;2023-04-28T06:43:11;3.10;;;2.70;;
19808;SDS011;48538;32.784;-96.802;2023-04-28T06:45:37;2.85;;;2.65;;
19808;SDS011;48538;32.784;-96.802;2023-04-28T06:48:04;4.43;;;2.83;;
19808;SDS011;48538;32.784;-96.802;2023-04-28T06:50:32;2.95;;;2.65;;
19808;SDS011;48538;32.784;-96.802;2023-04-28T06:52:58;4.47;;;2.63;;
19808;SDS011;48538;32.784;-96.802;2023-04-28T06:55:25;2.78;;;2.53;;
19808;SDS011;48538;32.784;-96.802;2023-04-28T06:57:51;2.50;;;2.30;;
19808;SDS011;48538;32.784;-96.802;2023-04-28T07:00:18;2.77;;;2.57;;
19808;SDS011;48538;32.784;-96.802;2023-04-28T07:02:44;5.05;;;2.90;;
19808;SDS011;48538;32.784;-96.802;2023-04-28T07:05:10;4.80;;;3.17;;
19808;SDS011;48538;32.784;-96.802;2023-04-28T07:07:38;7.90;;;3.43;;
19808;SDS011;48538;32.784;-96.802;2023-04-28T07:10:04;3.60;;;2.50;;
19808;SDS011;48538;32.784;-96.802;2023-04-28T07:12:31;3.63;;;2.60;;
19808;SDS011;48538;32.784;-96.802;2023-04-28T07:14:58;7.37;;;3.30;;
19808;SDS011;48538;32.784;-96.802;2023-04-28T07:17:24;3.87;;;2.47;;
19808;SDS011;48538;32.784;-96.802;2023-04-28T07:19:50;4.15;;;2.90;;
19808;SDS011;48538;32.784;-96.802;2023-04-28T07:22:16;4.07;;;2.90;;
19808;SDS011;48538;32.784;-96.802;2023-04-28T07:24:43;3.17;;;2.73;;
19808;SDS011;48538;32.784;-96.802;2023-04-28T07:27:09;3.20;;;2.85;;
19808;SDS011;48538;32.784;-96.802;2023-04-28T07:29:36;4.47;;;3.00;;
19808;SDS011;48538;32.784;-96.802;2023-04-28T07:32:03;3.27;;;2.87;;
19808;SDS011;48538;32.784;-96.802;2023-04-28T07:34:30;5.55;;;2.72;;
19808;SDS011;48538;32.784;-96.802;2023-04-28T07:36:56;4.37;;;2.97;;
19808;SDS011;48538;32.784;-96.802;2023-04-28T07:39:22;2.87;;;2.33;;
19808;SDS011;48538;32.784;-96.802;2023-04-28T07:41:49;2.60;;;2.40;;
19808;SDS011;48538;32.784;-96.802;2023-04-28T07:44:15;2.53;;;2.33;;
19808;SDS011;48538;32.784;-96.802;2023-04-28T07:46:41;3.73;;;2.53;;
19808;SDS011;48538;32.784;-96.802;2023-04-28T07:49:08;2.70;;;2.40;;
19808;SDS011;48538;32.784;-96.802;2023-04-28T07:51:34;3.70;;;2.50;;
19808;SDS011;48538;32.784;-96.802;2023-04-28T07:54:00;2.70;;;2.50;;
19808;SDS011;48538;32.784;-96.802;2023-04-28T07:56:27;2.30;;;2.07;;
19808;SDS011;48538;32.784;-96.802;2023-04-28T07:58:53;2.30;;;2.10;;
19808;SDS011;48538;32.784;-96.802;2023-04-28T08:01:19;2.37;;;2.17;;
19808;SDS011;48538;32.784;-96.802;2023-04-28T08:03:45;2.13;;;1.90;;
19808;SDS011;48538;32.784;-96.802;2023-04-28T08:06:12;2.37;;;2.17;;
19808;SDS011;48538;32.784;-96.802;2023-04-28T08:08:38;2.60;;;2.40;;
19808;SDS011;48538;32.784;-96.802;2023-04-28T08:11:05;2.30;;;2.10;;
19808;SDS011;48538;32.784;-96.802;2023-04-28T08:13:32;3.27;;;2.17;;
19808;SDS011;48538;32.784;-96.802;2023-04-28T08:15:58;2.77;;;2.40;;
19808;SDS011;48538;32.784;-96.802;2023-04-28T08:18:25;2.40;;;2.20;;
19808;SDS011;48538;32.784;-96.802;2023-04-28T08:20:52;2.67;;;2.33;;
19808;SDS011;48538;32.784;-96.802;2023-04-28T08:23:18;2.63;;;2.30;;
19808;SDS011;48538;32.784;-96.802;2023-04-28T08:25:45;2.90;;;2.70;;
19808;SDS011;48538;32.784;-96.802;2023-04-28T08:28:12;2.70;;;2.40;;
19808;SDS011;48538;32.784;-96.802;2023-04-28T08:30:38;2.87;;;2.23;;
19808;SDS011;48538;32.784;-96.802;2023-04-28T08:33:05;2.97;;;2.20;;
19808;SDS011;48538;32.784;-96.802;2023-04-28T08:35:31;2.57;;;2.37;;
19808;SDS011;48538;32.784;-96.802;2023-04-28T08:37:57;2.50;;;2.30;;
19808;SDS011;48538;32.784;-96.802;2023-04-28T08:40:24;3.60;;;2.40;;
19808;SDS011;48538;32.784;-96.802;2023-04-28T08:42:51;2.60;;;2.40;;
19808;SDS011;48538;32.784;-96.802;2023-04-28T08:45:19;3.17;;;2.63;;
19808;SDS011;48538;32.784;-96.802;2023-04-28T08:47:48;2.83;;;2.63;;
19808;SDS011;48538;32.784;-96.802;2023-04-28T08:50:15;2.70;;;2.50;;
19808;SDS011;48538;32.784;-96.802;2023-04-28T08:52:47;2.93;;;2.20;;
19808;SDS011;48538;32.784;-96.802;2023-04-28T08:55:15;2.37;;;2.13;;
19808;SDS011;48538;32.784;-96.802;2023-04-28T08:57:44;3.20;;;2.40;;
19808;SDS011;48538;32.784;-96.802;2023-04-28T09:00:15;2.50;;;2.20;;
19808;SDS011;48538;32.784;-96.802;2023-04-28T09:02:42;2.10;;;2.00;;
19808;SDS011;48538;32.784;-96.802;2023-04-28T09:05:09;2.50;;;2.30;;
19808;SDS011;48538;32.784;-96.802;2023-04-28T09:07:36;2.60;;;2.37;;
19808;SDS011;48538;32.784;-96.802;2023-04-28T09:10:19;2.83;;;2.60;;
19808;SDS011;48538;32.784;-96.802;2023-04-28T09:12:47;2.40;;;2.20;;
19808;SDS011;48538;32.784;-96.802;2023-04-28T09:15:30;2.80;;;2.53;;
19808;SDS011;48538;32.784;-96.802;2023-04-28T09:17:58;2.63;;;2.43;;
19808;SDS011;48538;32.784;-96.802;2023-04-28T09:20:26;2.50;;;2.30;;
19808;SDS011;48538;32.784;-96.802;2023-04-28T09:22:54;2.40;;;2.20;;
19808;SDS011;48538;32.784;-96.802;2023-04-28T09:25:36;2.60;;;2.40;;
19808;SDS011;48538;32.784;-96.802;2023-04-28T09:31:01;2.60;;;2.40;;
19808;SDS011;48538;32.784;-96.802;2023-04-28T09:33:28;3.20;;;2.60;;
19808;SDS011;48538;32.784;-96.802;2023-04-28T09:35:54;2.53;;;2.30;;
19808;SDS011;48538;32.784;-96.802;2023-04-28T09:38:21;2.40;;;2.20;;
19808;SDS011;48538;32.784;-96.802;2023-04-28T09:46:00;2.90;;;2.30;;
19808;SDS011;48538;32.784;-96.802;2023-04-28T09:48:28;3.60;;;2.40;;
19808;SDS011;48538;32.784;-96.802;2023-04-28T09:51:00;2.40;;;2.20;;
19808;SDS011;48538;32.784;-96.802;2023-04-28T09:53:30;2.67;;;2.47;;
19808;SDS011;48538;32.784;-96.802;2023-04-28T09:55:58;2.73;;;2.50;;
19808;SDS011;48538;32.784;-96.802;2023-04-28T09:58:26;2.60;;;2.40;;
19808;SDS011;48538;32.784;-96.802;2023-04-28T10:00:57;3.30;;;2.70;;
19808;SDS011;48538;32.784;-96.802;2023-04-28T10:03:28;2.80;;;2.40;;
19808;SDS011;48538;32.784;-96.802;2023-04-28T10:05:56;3.53;;;2.50;;
19808;SDS011;48538;32.784;-96.802;2023-04-28T10:08:23;2.87;;;2.60;;
19808;SDS011;48538;32.784;-96.802;2023-04-28T10:10:51;4.03;;;3.10;;
19808;SDS011;48538;32.784;-96.802;2023-04-28T10:13:19;3.37;;;3.03;;
19808;SDS011;48538;32.784;-96.802;2023-04-28T10:15:46;3.30;;;3.00;;
19808;SDS011;48538;32.784;-96.802;2023-04-28T10:18:13;3.50;;;2.60;;
19808;SDS011;48538;32.784;-96.802;2023-04-28T10:20:47;4.43;;;3.03;;
19808;SDS011;48538;32.784;-96.802;2023-04-28T10:26:20;3.90;;;3.17;;
19808;SDS011;48538;32.784;-96.802;2023-04-28T10:28:51;3.13;;;2.50;;
19808;SDS011;48538;32.784;-96.802;2023-04-28T10:31:18;2.93;;;2.57;;
19808;SDS011;48538;32.784;-96.802;2023-04-28T10:33:47;3.43;;;2.83;;
19808;SDS011;48538;32.784;-96.802;2023-04-28T10:39:14;2.93;;;2.63;;
19808;SDS011;48538;32.784;-96.802;2023-04-28T10:41:41;3.67;;;2.90;;
19808;SDS011;48538;32.784;-96.802;2023-04-28T10:47:04;4.07;;;3.07;;
19808;SDS011;48538;32.784;-96.802;2023-04-28T11:00:44;3.67;;;3.27;;
19808;SDS011;48538;32.784;-96.802;2023-04-28T11:08:57;4.80;;;2.77;;
19808;SDS011;48538;32.784;-96.802;2023-04-28T11:11:29;4.57;;;3.20;;
19808;SDS011;48538;32.784;-96.802;2023-04-28T11:16:58;2.93;;;2.70;;
19808;SDS011;48538;32.784;-96.802;2023-04-28T11:19:40;3.80;;;3.20;;
19808;SDS011;48538;32.784;-96.802;2023-04-28T11:22:18;4.57;;;3.17;;
19808;SDS011;48538;32.784;-96.802;2023-04-28T11:24:57;3.20;;;2.90;;
19808;SDS011;48538;32.784;-96.802;2023-04-28T11:27:26;3.10;;;2.80;;
19808;SDS011;48538;32.784;-96.802;2023-04-28T11:29:57;4.17;;;3.17;;
19808;SDS011;48538;32.784;-96.802;2023-04-28T11:32:26;3.20;;;2.50;;
19808;SDS011;48538;32.784;-96.802;2023-04-28T11:34:53;2.10;;;2.00;;
19808;SDS011;48538;32.784;-96.802;2023-04-28T11:37:19;4.43;;;3.43;;
19808;SDS011;48538;32.784;-96.802;2023-04-28T11:39:47;2.83;;;2.53;;
19808;SDS011;48538;32.784;-96.802;2023-04-28T11:42:13;3.73;;;2.80;;
19808;SDS011;48538;32.784;-96.802;2023-04-28T11:44:41;3.03;;;2.80;;
19808;SDS011;48538;32.784;-96.802;2023-04-28T11:47:27;3.43;;;2.80;;
19808;SDS011;48538;32.784;-96.802;2023-04-28T11:49:58;3.23;;;2.70;;
19808;SDS011;48538;32.784;-96.802;2023-04-28T11:52:25;3.00;;;2.80;;
19808;SDS011;48538;32.784;-96.802;2023-04-28T11:54:52;3.17;;;2.60;;
19808;SDS011;48538;32.784;-96.802;2023-04-28T11:57:23;2.80;;;2.60;;
19808;SDS011;48538;32.784;-96.802;2023-04-28T11:59:50;2.77;;;2.43;;
19808;SDS011;48538;32.784;-96.802;2023-04-28T12:02:24;3.03;;;2.60;;
19808;SDS011;48538;32.784;-96.802;2023-04-28T12:04:54;2.73;;;2.43;;
19808;SDS011;48538;32.784;-96.802;2023-04-28T12:07:20;4.93;;;3.10;;
19808;SDS011;48538;32.784;-96.802;2023-04-28T12:12:36;3.33;;;3.00;;
19808;SDS011;48538;32.784;-96.802;2023-04-28T12:15:05;3.00;;;2.80;;
19808;SDS011;48538;32.784;-96.802;2023-04-28T12:17:33;3.17;;;2.87;;
19808;SDS011;48538;32.784;-96.802;2023-04-28T12:20:02;3.30;;;3.00;;
19808;SDS011;48538;32.784;-96.802;2023-04-28T12:22:42;3.77;;;2.83;;
19808;SDS011;48538;32.784;-96.802;2023-04-28T12:25:11;3.30;;;3.00;;
19808;SDS011;48538;32.784;-96.802;2023-04-28T12:27:40;3.20;;;2.90;;
19808;SDS011;48538;32.784;-96.802;2023-04-28T12:30:23;3.97;;;2.70;;
19808;SDS011;48538;32.784;-96.802;2023-04-28T12:32:50;3.50;;;2.90;;
19808;SDS011;48538;32.784;-96.802;2023-04-28T12:35:19;3.23;;;2.90;;
19808;SDS011;48538;32.784;-96.802;2023-04-28T12:37:46;3.07;;;2.77;;
19808;SDS011;48538;32.784;-96.802;2023-04-28T12:40:13;4.20;;;3.47;;
19808;SDS011;48538;32.784;-96.802;2023-04-28T12:42:39;3.33;;;3.00;;
19808;SDS011;48538;32.784;-96.802;2023-04-28T12:45:06;5.93;;;2.60;;
19808;SDS011;48538;32.784;-96.802;2023-04-28T12:47:35;2.57;;;2.37;;
19808;SDS011;48538;32.784;-96.802;2023-04-28T12:50:03;3.63;;;2.87;;
19808;SDS011;48538;32.784;-96.802;2023-04-28T12:52:33;3.00;;;2.70;;
19808;SDS011;48538;32.784;-96.802;2023-04-28T12:55:01;3.33;;;2.77;;
19808;SDS011;48538;32.784;-96.802;2023-04-28T12:57:28;4.03;;;2.80;;
19808;SDS011;48538;32.784;-96.802;2023-04-28T12:59:55;2.90;;;2.40;;
19808;SDS011;48538;32.784;-96.802;2023-04-28T13:02:22;3.73;;;2.70;;
19808;SDS011;48538;32.784;-96.802;2023-04-28T13:04:48;8.20;;;2.80;;
19808;SDS011;48538;32.784;-96.802;2023-04-28T13:07:16;2.63;;;2.07;;
19808;SDS011;48538;32.784;-96.802;2023-04-28T13:09:43;4.63;;;2.50;;
19808;SDS011;48538;32.784;-96.802;2023-04-28T13:12:09;3.10;;;2.63;;
19808;SDS011;48538;32.784;-96.802;2023-04-28T13:14:36;3.33;;;2.60;;
19808;SDS011;48538;32.784;-96.802;2023-04-28T13:17:02;3.63;;;2.60;;
19808;SDS011;48538;32.784;-96.802;2023-04-28T13:19:30;3.83;;;2.80;;
19808;SDS011;48538;32.784;-96.802;2023-04-28T13:21:58;3.00;;;2.60;;
19808;SDS011;48538;32.784;-96.802;2023-04-28T13:24:25;2.90;;;2.60;;
19808;SDS011;48538;32.784;-96.802;2023-04-28T13:26:52;3.00;;;2.63;;
19808;SDS011;48538;32.784;-96.802;2023-04-28T13:29:18;3.30;;;2.63;;
19808;SDS011;48538;32.784;-96.802;2023-04-28T13:31:44;2.50;;;2.30;;
19808;SDS011;48538;32.784;-96.802;2023-04-28T13:34:11;4.43;;;3.07;;
19808;SDS011;48538;32.784;-96.802;2023-04-28T13:36:42;3.13;;;2.80;;
19808;SDS011;48538;32.784;-96.802;2023-04-28T13:39:08;3.23;;;2.60;;
19808;SDS011;48538;32.784;-96.802;2023-04-28T13:41:41;3.03;;;2.73;;
19808;SDS011;48538;32.784;-96.802;2023-04-28T13:44:07;3.00;;;2.70;;
19808;SDS011;48538;32.784;-96.802;2023-04-28T13:46:33;2.70;;;2.47;;
19808;SDS011;48538;32.784;-96.802;2023-04-28T13:49:00;3.03;;;2.43;;
19808;SDS011;48538;32.784;-96.802;2023-04-28T13:51:26;3.90;;;2.70;;
19808;SDS011;48538;32.784;-96.802;2023-04-28T13:53:52;5.43;;;2.90;;
19808;SDS011;48538;32.784;-96.802;2023-04-28T13:56:19;2.43;;;2.20;;
19808;SDS011;48538;32.784;-96.802;2023-04-28T13:58:45;2.77;;;2.20;;
19808;SDS011;48538;32.784;-96.802;2023-04-28T14:01:11;2.63;;;2.13;;
19808;SDS011;48538;32.784;-96.802;2023-04-28T14:03:38;2.93;;;2.70;;
19808;SDS011;48538;32.784;-96.802;2023-04-28T14:06:05;2.27;;;2.07;;
19808;SDS011;48538;32.784;-96.802;2023-04-28T14:08:32;2.30;;;2.10;;
19808;SDS011;48538;32.784;-96.802;2023-04-28T14:10:58;4.35;;;2.13;;
19808;SDS011;48538;32.784;-96.802;2023-04-28T14:13:25;2.45;;;2.25;;
19808;SDS011;48538;32.784;-96.802;2023-04-28T14:15:51;2.03;;;1.88;;
19808;SDS011;48538;32.784;-96.802;2023-04-28T14:18:20;2.38;;;2.00;;
19808;SDS011;48538;32.784;-96.802;2023-04-28T14:20:46;2.20;;;2.00;;
19808;SDS011;48538;32.784;-96.802;2023-04-28T14:23:13;2.13;;;1.90;;
19808;SDS011;48538;32.784;-96.802;2023-04-28T14:25:40;1.90;;;1.80;;
19808;SDS011;48538;32.784;-96.802;2023-04-28T14:28:07;2.33;;;2.10;;
19808;SDS011;48538;32.784;-96.802;2023-04-28T14:30:33;3.17;;;2.33;;
19808;SDS011;48538;32.784;-96.802;2023-04-28T14:33:00;5.60;;;2.40;;
19808;SDS011;48538;32.784;-96.802;2023-04-28T14:35:26;7.18;;;2.88;;
19808;SDS011;48538;32.784;-96.802;2023-04-28T14:37:54;2.58;;;2.38;;
19808;SDS011;48538;32.784;-96.802;2023-04-28T14:40:21;4.78;;;2.15;;
19808;SDS011;48538;32.784;-96.802;2023-04-28T14:42:47;2.67;;;2.20;;
19808;SDS011;48538;32.784;-96.802;2023-04-28T14:45:14;2.65;;;2.20;;
19808;SDS011;48538;32.784;-96.802;2023-04-28T14:47:40;2.30;;;2.10;;
19808;SDS011;48538;32.784;-96.802;2023-04-28T14:50:07;2.72;;;1.80;;
19808;SDS011;48538;32.784;-96.802;2023-04-28T14:52:33;2.10;;;1.90;;
19808;SDS011;48538;32.784;-96.802;2023-04-28T14:55:00;3.45;;;2.22;;
19808;SDS011;48538;32.784;-96.802;2023-04-28T14:57:29;2.22;;;2.03;;
19808;SDS011;48538;32.784;-96.802;2023-04-28T14:59:56;2.90;;;1.83;;
19808;SDS011;48538;32.784;-96.802;2023-04-28T15:02:22;3.40;;;1.80;;